Time;durP1;ratioP1;P1;durP2;ratioP2;P2;SDS_P1;SDS_P2;PMS_P1;PMS_P2;Temp;Humidity;BMP_temperature;BMP_pressure;BME280_temperature;BME280_humidity;BME280_pressure;Samples;Min_cycle;Max_cycle;Signal;HPM_P1;HPM_P2
2021/04/10 00:00:55;;;;;;;;;4.75;4.00;;;;;14.18;43.43;98371.66;4861225;28;103410;-78
2021/04/10 00:03:22;;;;;;;;;6.00;5.00;;;;;14.17;43.69;98365.38;4861532;28;101826;-78
2021/04/10 00:05:49;;;;;;;;;4.25;4.00;;;;;14.15;43.07;98359.34;4861146;28;102090;-78
2021/04/10 00:08:15;;;;;;;;;6.75;4.50;;;;;14.16;42.92;98360.19;4864096;28;102098;-78
2021/04/10 00:10:42;;;;;;;;;7.00;4.00;;;;;14.15;43.40;98356.63;4863422;28;103370;-78
2021/04/10 00:13:09;;;;;;;;;6.50;4.00;;;;;14.14;42.94;98359.56;4861699;28;101764;-78
2021/04/10 00:15:36;;;;;;;;;4.00;4.00;;;;;14.14;43.81;98360.38;4849276;28;102011;-78
2021/04/10 00:18:03;;;;;;;;;4.25;4.00;;;;;14.13;43.49;98358.75;4865367;28;102085;-78
2021/04/10 00:20:29;;;;;;;;;4.00;3.00;;;;;14.12;43.69;98359.81;4866261;28;103756;-78
2021/04/10 00:22:56;;;;;;;;;4.25;3.75;;;;;14.11;43.90;98360.84;4848478;28;101771;-78
2021/04/10 00:25:24;;;;;;;;;4.75;4.00;;;;;14.10;43.41;98359.19;4864755;28;101731;-78
2021/04/10 00:27:55;;;;;;;;;3.75;3.00;;;;;14.10;42.93;98363.81;4867002;28;102938;-78
2021/04/10 00:30:22;;;;;;;;;3.50;3.00;;;;;14.10;43.05;98371.97;4863176;28;103407;-78
2021/04/10 00:32:49;;;;;;;;;2.00;2.00;;;;;14.09;43.94;98373.88;4864219;28;101942;-78
2021/04/10 00:35:17;;;;;;;;;5.25;4.50;;;;;14.08;43.30;98372.22;4865316;28;103258;-78
2021/04/10 00:37:43;;;;;;;;;4.75;3.00;;;;;14.08;43.75;98377.66;4866367;28;102158;-78
2021/04/10 00:40:11;;;;;;;;;3.25;2.50;;;;;14.08;43.04;98374.09;4866254;28;103421;-78
2021/04/10 00:42:37;;;;;;;;;5.00;3.25;;;;;14.07;43.69;98378.69;4866302;28;102130;-78
2021/04/10 00:45:06;;;;;;;;;2.75;2.75;;;;;14.06;43.04;98374.31;4849476;28;102962;-78
2021/04/10 00:47:33;;;;;;;;;5.00;3.50;;;;;14.06;43.33;98374.31;4851611;28;102225;-78
2021/04/10 00:50:00;;;;;;;;;2.25;2.25;;;;;14.05;43.38;98380.00;4866161;28;103869;-78
2021/04/10 00:52:27;;;;;;;;;4.00;3.25;;;;;14.05;43.38;98374.56;4862572;28;101916;-78
2021/04/10 00:54:53;;;;;;;;;3.00;3.00;;;;;14.04;43.39;98370.16;4847523;28;102146;-78
2021/04/10 00:57:20;;;;;;;;;5.00;3.75;;;;;14.03;43.53;98361.19;4863512;28;102095;-78
2021/04/10 00:59:47;;;;;;;;;4.00;4.00;;;;;14.01;42.88;98366.00;4832734;28;103789;-78
2021/04/10 01:02:14;;;;;;;;;3.00;3.00;;;;;14.01;43.12;98367.88;4867166;28;101990;-78
2021/04/10 01:04:41;;;;;;;;;4.00;3.25;;;;;14.00;43.00;98361.66;4863237;28;102212;-78
2021/04/10 01:07:08;;;;;;;;;2.00;2.00;;;;;14.00;42.85;98369.81;4863702;28;102945;-78
2021/04/10 01:09:36;;;;;;;;;4.00;3.25;;;;;13.99;43.60;98361.88;4866294;28;103569;-78
2021/04/10 01:12:21;;;;;;;;;4.75;3.00;;;;;13.99;43.56;98364.59;4863043;28;102021;-78
2021/04/10 01:15:22;;;;;;;;;2.75;2.75;;;;;13.97;43.77;98364.81;4866158;28;102652;-78
2021/04/10 01:17:58;;;;;;;;;3.25;3.25;;;;;13.99;42.89;98365.41;4864318;28;101787;-78
2021/04/10 01:20:59;;;;;;;;;3.75;3.75;;;;;13.97;43.38;98372.13;4839201;28;104015;-78
2021/04/10 01:23:56;;;;;;;;;3.00;3.00;;;;;13.95;43.46;98372.38;4862847;28;101998;-78
2021/04/10 01:26:49;;;;;;;;;3.25;3.25;;;;;13.95;42.95;98361.50;4862336;28;101846;-78
2021/04/10 01:29:17;;;;;;;;;3.00;3.00;;;;;13.94;42.78;98357.13;4835973;28;102288;-78
2021/04/10 01:31:45;;;;;;;;;4.00;3.00;;;;;13.93;43.46;98357.34;4858784;28;102411;-78
2021/04/10 01:34:17;;;;;;;;;3.50;3.00;;;;;13.93;43.56;98360.06;4842978;28;102127;-78
2021/04/10 01:36:44;;;;;;;;;4.25;2.75;;;;;13.91;43.42;98365.75;4847206;28;101857;-78
2021/04/10 01:39:12;;;;;;;;;4.75;3.00;;;;;13.91;43.62;98352.16;4863013;28;102265;-78
2021/04/10 01:41:45;;;;;;;;;3.00;3.00;;;;;13.90;42.66;98360.53;4858571;28;103167;-78
2021/04/10 01:44:15;;;;;;;;;3.25;3.00;;;;;13.88;43.00;98347.16;4849849;28;102203;-78
2021/04/10 01:46:43;;;;;;;;;3.25;3.25;;;;;13.87;42.60;98356.34;4845864;28;103245;-78
2021/04/10 01:49:10;;;;;;;;;3.50;3.50;;;;;13.87;42.69;98342.75;4835947;28;103034;-78
2021/04/10 01:51:37;;;;;;;;;3.00;3.00;;;;;13.85;43.27;98347.63;4846827;28;103437;-78
2021/04/10 01:54:05;;;;;;;;;3.00;3.00;;;;;13.85;43.30;98342.19;4847883;28;103144;-78
2021/04/10 01:56:32;;;;;;;;;3.00;2.75;;;;;13.85;43.39;98336.75;4853461;28;101755;-78
2021/04/10 01:58:59;;;;;;;;;3.00;3.00;;;;;13.83;43.70;98334.25;4862014;28;102222;-78
2021/04/10 02:01:26;;;;;;;;;2.25;2.25;;;;;13.84;42.99;98344.06;4832331;28;103424;-78
2021/04/10 02:03:53;;;;;;;;;3.50;2.25;;;;;13.81;43.36;98327.38;4864713;28;101966;-78
2021/04/10 02:06:20;;;;;;;;;2.50;2.50;;;;;13.82;43.10;98339.94;4865563;28;102010;-78
2021/04/10 02:08:47;;;;;;;;;3.00;2.50;;;;;13.82;43.43;98331.78;4861635;28;103017;-78
2021/04/10 02:11:14;;;;;;;;;2.25;2.00;;;;;13.82;43.11;98331.78;4847434;28;103356;-78
2021/04/10 02:13:41;;;;;;;;;2.25;2.25;;;;;13.78;43.19;98334.09;4848022;28;102202;-78
2021/04/10 02:16:08;;;;;;;;;4.50;3.00;;;;;13.78;43.65;98328.66;4847899;28;101780;-78
2021/04/10 02:18:36;;;;;;;;;3.75;3.75;;;;;13.80;42.82;98328.44;4865318;28;102438;-78
2021/04/10 02:21:07;;;;;;;;;3.00;3.00;;;;;13.79;43.59;98332.22;4864682;28;103395;-78
2021/04/10 02:23:37;;;;;;;;;3.25;3.00;;;;;13.78;42.97;98331.38;4864437;28;102939;-78
2021/04/10 02:26:04;;;;;;;;;3.50;3.50;;;;;13.77;42.62;98335.19;4846468;28;102120;-78
2021/04/10 02:28:31;;;;;;;;;3.25;3.00;;;;;13.76;42.76;98333.50;4864270;28;103183;-78
2021/04/10 02:30:59;;;;;;;;;3.25;3.00;;;;;13.76;42.94;98325.34;4844978;28;103760;-78
2021/04/10 02:33:32;;;;;;;;;4.50;3.00;;;;;13.75;42.69;98334.56;4862257;28;102655;-78
2021/04/10 02:35:58;;;;;;;;;3.25;3.00;;;;;13.76;42.84;98324.53;4829298;28;102508;-78
2021/04/10 02:38:27;;;;;;;;;2.00;2.00;;;;;13.75;42.65;98320.13;4829749;28;101770;-78
2021/04/10 02:41:07;;;;;;;;;3.75;3.00;;;;;13.76;43.56;98332.69;4862936;28;103736;-78
2021/04/10 02:43:35;;;;;;;;;4.00;3.00;;;;;13.75;43.37;98328.28;4862208;28;101714;-78
2021/04/10 02:46:02;;;;;;;;;3.50;3.25;;;;;13.73;43.55;98325.00;4859643;28;101737;-78
2021/04/10 02:48:33;;;;;;;;;5.00;3.00;;;;;13.73;42.43;98330.44;4864161;28;103223;-78
2021/04/10 02:51:00;;;;;;;;;3.00;3.00;;;;;13.71;43.33;98330.63;4855548;28;103469;-78
2021/04/10 02:53:27;;;;;;;;;4.00;3.00;;;;;13.71;43.65;98327.91;4846768;28;102173;-78
2021/04/10 02:55:56;;;;;;;;;4.25;2.25;;;;;13.71;43.32;98330.63;4861008;28;105328;-78
2021/04/10 02:58:23;;;;;;;;;2.00;2.00;;;;;13.70;42.94;98320.00;4862680;28;102243;-78
2021/04/10 03:00:49;;;;;;;;;2.25;2.25;;;;;13.70;42.44;98318.09;4816222;28;103302;-78
2021/04/10 03:03:16;;;;;;;;;4.00;3.00;;;;;13.69;43.52;98321.03;4861367;28;101914;-78
2021/04/10 03:05:44;;;;;;;;;2.50;2.50;;;;;13.69;43.31;98318.31;4845349;28;101852;-78
2021/04/10 03:08:10;;;;;;;;;4.50;3.75;;;;;13.68;42.63;98320.25;4845939;28;103116;-78
2021/04/10 03:10:37;;;;;;;;;2.00;2.00;;;;;13.69;43.57;98323.75;4848770;28;103417;-78
2021/04/10 03:13:04;;;;;;;;;2.00;2.00;;;;;13.68;42.80;98324.84;4848300;28;101782;-79
2021/04/10 03:15:30;;;;;;;;;4.00;3.75;;;;;13.66;43.50;98316.91;4861805;28;102122;-78
2021/04/10 03:17:57;;;;;;;;;1.25;1.25;;;;;13.65;42.82;98320.66;4862850;28;102073;-78
2021/04/10 03:20:26;;;;;;;;;4.00;3.25;;;;;13.66;42.69;98325.06;4816185;28;103592;-78
2021/04/10 03:22:52;;;;;;;;;3.75;3.00;;;;;13.66;42.86;98329.66;4859455;28;102037;-78
2021/04/10 03:25:19;;;;;;;;;3.50;3.00;;;;;13.64;42.95;98332.63;4861648;28;102363;-78
2021/04/10 03:27:46;;;;;;;;;2.00;2.00;;;;;13.65;42.94;98338.84;4842585;28;102071;-78
2021/04/10 03:30:13;;;;;;;;;1.50;1.00;;;;;13.63;42.71;98324.69;4851841;28;103403;-78
2021/04/10 03:32:40;;;;;;;;;4.25;2.00;;;;;13.62;42.96;98329.28;4846921;28;102041;-78
2021/04/10 03:35:07;;;;;;;;;3.00;3.00;;;;;13.62;42.77;98332.00;4844776;28;102200;-78
2021/04/10 03:37:34;;;;;;;;;1.00;1.00;;;;;13.62;43.09;98331.16;4862007;28;102197;-78
2021/04/10 03:40:01;;;;;;;;;3.00;2.00;;;;;13.62;42.87;98323.03;4859645;28;103389;-78
2021/04/10 03:42:35;;;;;;;;;5.25;3.75;;;;;13.61;42.98;98343.09;4863156;28;102068;-78
2021/04/10 03:45:03;;;;;;;;;3.00;3.00;;;;;13.60;42.50;98328.66;4860264;28;102212;-78
2021/04/10 03:47:51;;;;;;;;;2.00;1.75;;;;;13.61;43.25;98329.50;4860912;28;102632;-78
2021/04/10 03:50:18;;;;;;;;;3.75;3.00;;;;;13.60;42.41;98325.16;4861429;28;103349;-78
2021/04/10 03:52:45;;;;;;;;;3.50;3.00;;;;;13.58;42.52;98325.38;4860166;28;102129;-78
2021/04/10 03:55:12;;;;;;;;;4.00;2.00;;;;;13.58;43.42;98321.81;4860912;28;101722;-78
2021/04/10 03:57:39;;;;;;;;;4.00;3.75;;;;;13.57;43.01;98320.16;4846865;28;102286;-78
2021/04/10 04:00:06;;;;;;;;;3.00;3.00;;;;;13.57;43.29;98328.31;4861796;28;103492;-79
2021/04/10 04:02:33;;;;;;;;;1.75;1.75;;;;;13.56;43.44;98334.78;4846723;28;102074;-78
2021/04/10 04:04:59;;;;;;;;;2.00;2.00;;;;;13.56;43.35;98332.06;4861543;28;102811;-78
2021/04/10 04:07:26;;;;;;;;;4.00;3.50;;;;;13.55;42.93;98331.25;4849301;28;102197;-78
2021/04/10 04:09:53;;;;;;;;;3.00;2.00;;;;;13.56;43.10;98334.78;4859697;28;103421;-78
2021/04/10 04:12:20;;;;;;;;;2.75;2.75;;;;;13.55;43.15;98338.59;4861925;28;102006;-78
2021/04/10 04:14:46;;;;;;;;;4.00;3.00;;;;;13.54;43.37;98343.19;4860653;28;102040;-78
2021/04/10 04:17:13;;;;;;;;;4.00;3.00;;;;;13.51;42.27;98338.19;4862409;28;102414;-79
2021/04/10 04:19:40;;;;;;;;;2.00;2.00;;;;;13.54;43.32;98335.03;4859768;28;103282;-78
2021/04/10 04:22:07;;;;;;;;;2.00;2.00;;;;;13.53;42.86;98341.50;4859869;28;102018;-78
2021/04/10 04:24:34;;;;;;;;;3.25;2.50;;;;;13.54;42.44;98347.78;4860392;28;102934;-78
2021/04/10 04:27:01;;;;;;;;;3.50;2.50;;;;;13.52;42.44;98348.00;4863527;28;101887;-78
2021/04/10 04:29:27;;;;;;;;;2.00;2.00;;;;;13.54;43.42;98347.78;4862585;28;103406;-78
2021/04/10 04:31:54;;;;;;;;;2.50;2.50;;;;;13.53;43.23;98351.53;4858789;28;102165;-78
2021/04/10 04:34:21;;;;;;;;;2.75;2.00;;;;;13.52;42.88;98339.84;4861071;28;102051;-78
2021/04/10 04:36:48;;;;;;;;;3.50;3.00;;;;;13.52;42.89;98349.88;4860963;28;102191;-78
2021/04/10 04:39:14;;;;;;;;;2.50;2.50;;;;;13.51;42.82;98353.66;4857620;28;103403;-78
2021/04/10 04:41:41;;;;;;;;;3.00;2.00;;;;;13.51;42.82;98353.66;4859286;28;102313;-78
2021/04/10 04:44:08;;;;;;;;;2.50;2.00;;;;;13.50;42.99;98358.28;4860878;28;102000;-77
2021/04/10 04:46:34;;;;;;;;;2.00;2.00;;;;;13.51;43.27;98359.91;4860490;28;102800;-78
2021/04/10 04:49:01;;;;;;;;;5.25;3.50;;;;;13.49;43.37;98353.88;4860358;28;103330;-78
2021/04/10 04:51:28;;;;;;;;;3.75;3.00;;;;;13.50;42.25;98352.00;4859474;28;103232;-78
2021/04/10 04:53:55;;;;;;;;;4.50;3.00;;;;;13.48;43.11;98354.94;4862528;28;103430;-78
2021/04/10 04:56:22;;;;;;;;;3.50;2.75;;;;;13.49;42.91;98358.47;4860103;28;103813;-78
2021/04/10 04:58:48;;;;;;;;;3.00;2.00;;;;;13.49;42.24;98361.19;4862366;28;103441;-78
2021/04/10 05:01:15;;;;;;;;;2.00;2.00;;;;;13.49;42.33;98361.19;4865226;28;101861;-78
2021/04/10 05:03:42;;;;;;;;;2.00;2.00;;;;;13.49;42.23;98363.91;4860439;28;102043;-78
2021/04/10 05:06:08;;;;;;;;;2.50;2.25;;;;;13.48;42.33;98370.41;4864256;28;102026;-78
2021/04/10 05:08:35;;;;;;;;;2.75;2.50;;;;;13.48;42.58;98364.97;4860885;28;104330;-78
2021/04/10 05:11:01;;;;;;;;;4.00;3.25;;;;;13.48;43.15;98368.50;4864829;28;101806;-78
2021/04/10 05:13:28;;;;;;;;;4.00;2.00;;;;;13.48;42.76;98371.22;4863595;28;104201;-78
2021/04/10 05:15:56;;;;;;;;;3.00;2.25;;;;;13.47;42.32;98377.72;4863322;28;102133;-78
2021/04/10 05:18:23;;;;;;;;;2.75;2.00;;;;;13.48;42.58;98373.13;4863917;28;103333;-78
2021/04/10 05:20:50;;;;;;;;;7.00;3.00;;;;;13.46;43.14;98378.78;4864956;28;102921;-78
2021/04/10 05:23:23;;;;;;;;;2.25;2.25;;;;;13.48;43.27;98375.84;4863878;28;101806;-78
2021/04/10 05:25:51;;;;;;;;;2.00;2.00;;;;;13.47;43.13;98374.16;4850559;28;102163;-78
2021/04/10 05:28:19;;;;;;;;;5.00;3.00;;;;;13.46;42.36;98380.69;4863451;28;103427;-78
2021/04/10 05:30:46;;;;;;;;;3.00;2.00;;;;;13.46;43.19;98384.22;4864184;28;102113;-78
2021/04/10 05:33:13;;;;;;;;;2.50;2.25;;;;;13.46;43.24;98373.38;4865106;28;101702;-78
2021/04/10 05:35:39;;;;;;;;;2.00;2.00;;;;;13.47;43.00;98382.31;4865631;28;103275;-78
2021/04/10 05:38:06;;;;;;;;;2.50;2.00;;;;;13.46;43.05;98384.22;4861488;28;103498;-78
2021/04/10 05:40:33;;;;;;;;;3.50;3.00;;;;;13.46;43.15;98388.81;4862801;28;102162;-78
2021/04/10 05:43:00;;;;;;;;;2.25;2.25;;;;;13.47;42.16;98395.91;4863608;28;102129;-78
2021/04/10 05:45:26;;;;;;;;;0.75;0.75;;;;;13.47;42.63;98398.59;4864880;28;102509;-78
2021/04/10 05:47:53;;;;;;;;;3.00;2.00;;;;;13.46;42.65;98391.53;4844876;28;103386;-78
2021/04/10 05:50:20;;;;;;;;;3.00;2.00;;;;;13.46;42.68;98389.66;4864163;28;102560;-78
2021/04/10 05:52:47;;;;;;;;;2.50;2.50;;;;;13.46;42.19;98395.09;4866068;28;101746;-78
2021/04/10 05:55:14;;;;;;;;;2.00;2.00;;;;;13.45;43.01;98404.28;4864290;28;102389;-78
2021/04/10 05:57:40;;;;;;;;;1.00;1.00;;;;;13.46;42.16;98405.13;4862741;28;103537;-78
2021/04/10 06:00:08;;;;;;;;;1.75;1.75;;;;;13.45;42.74;98398.03;4858961;28;103200;-78
2021/04/10 06:02:34;;;;;;;;;2.50;2.00;;;;;13.46;43.00;98410.56;4860904;28;102061;-78
2021/04/10 06:05:01;;;;;;;;;2.00;2.00;;;;;13.45;42.46;98408.88;4864153;28;102581;-78
2021/04/10 06:07:28;;;;;;;;;3.00;2.00;;;;;13.44;42.65;98405.34;4847996;28;103563;-78
2021/04/10 06:09:54;;;;;;;;;2.00;2.00;;;;;13.45;42.09;98408.88;4859504;28;102494;-78
2021/04/10 06:12:21;;;;;;;;;2.25;2.00;;;;;13.45;43.20;98415.16;4864158;28;102056;-78
2021/04/10 06:14:48;;;;;;;;;2.00;2.00;;;;;13.45;42.34;98411.59;4861835;28;102774;-78
2021/04/10 06:17:15;;;;;;;;;3.00;2.00;;;;;13.45;42.13;98420.59;4862530;28;103368;-78
2021/04/10 06:19:42;;;;;;;;;1.00;1.00;;;;;13.44;42.73;98416.19;4863221;28;103603;-78
2021/04/10 06:22:29;;;;;;;;;2.00;2.00;;;;;13.46;43.03;98424.13;4859393;28;102210;-78
2021/04/10 06:24:56;;;;;;;;;2.00;2.00;;;;;13.45;42.70;98426.00;4856093;28;102057;-78
2021/04/10 06:27:22;;;;;;;;;1.50;1.50;;;;;13.45;42.46;98417.88;4864327;28;103706;-78
2021/04/10 06:29:49;;;;;;;;;1.75;1.75;;;;;13.42;42.34;98421.00;4851459;28;101813;-79
2021/04/10 06:32:16;;;;;;;;;3.75;2.00;;;;;13.45;42.77;98426.00;4863782;28;102469;-78
2021/04/10 06:34:42;;;;;;;;;2.75;2.50;;;;;13.44;42.12;98427.06;4866051;28;103149;-78
2021/04/10 06:37:09;;;;;;;;;2.00;1.75;;;;;13.46;42.12;98426.84;4866490;28;103535;-78
2021/04/10 06:39:36;;;;;;;;;3.00;2.00;;;;;13.44;43.00;98427.06;4861457;28;103369;-80
2021/04/10 06:42:06;;;;;;;;;1.00;1.00;;;;;13.47;42.29;98428.50;4864631;28;101834;-79
2021/04/10 06:44:33;;;;;;;;;2.00;1.50;;;;;13.46;42.90;98426.84;4841696;28;103970;-79
2021/04/10 06:47:02;;;;;;;;;2.75;2.75;;;;;13.46;42.71;98426.84;4860096;28;103364;-78
2021/04/10 06:49:32;;;;;;;;;2.00;1.50;;;;;13.47;42.24;98429.31;4862968;28;102122;-78
2021/04/10 06:51:59;;;;;;;;;3.25;2.75;;;;;13.45;42.42;98426.00;4861329;28;102015;-78
2021/04/10 06:54:33;;;;;;;;;4.00;2.00;;;;;13.47;42.88;98433.91;4862165;28;102141;-78
2021/04/10 06:57:03;;;;;;;;;1.50;1.50;;;;;13.46;43.15;98426.84;4864203;28;103450;-78
2021/04/10 06:59:52;;;;;;;;;2.00;2.00;;;;;13.48;43.04;98436.44;4862617;28;102007;-78
2021/04/10 07:02:19;;;;;;;;;2.00;2.00;;;;;13.47;42.83;98423.06;4862835;28;102180;-78
2021/04/10 07:04:45;;;;;;;;;2.00;1.25;;;;;13.46;42.31;98427.69;4862627;28;102048;-78
2021/04/10 07:07:12;;;;;;;;;2.25;2.00;;;;;13.47;42.60;98423.06;4854723;28;103842;-78
2021/04/10 07:09:40;;;;;;;;;1.75;1.75;;;;;13.47;42.50;98418.47;4845476;28;101806;-78
2021/04/10 07:12:08;;;;;;;;;2.25;1.75;;;;;13.48;42.55;98428.28;4843134;28;102122;-78
2021/04/10 07:14:35;;;;;;;;;2.00;2.00;;;;;13.48;42.88;98430.16;4846132;28;102330;-78
2021/04/10 07:17:02;;;;;;;;;3.25;2.00;;;;;13.49;42.49;98426.41;4844599;28;103416;-78
2021/04/10 07:19:30;;;;;;;;;2.00;1.00;;;;;13.49;41.92;98426.41;4860836;28;101936;-78
2021/04/10 07:22:09;;;;;;;;;3.00;3.00;;;;;13.50;42.75;98428.06;4865512;28;101966;-78
2021/04/10 07:24:49;;;;;;;;;2.75;1.25;;;;;13.50;43.03;98428.91;4860793;28;103300;-78
2021/04/10 07:27:17;;;;;;;;;2.00;2.00;;;;;13.49;42.12;98435.38;4862507;28;102211;-78
2021/04/10 07:29:45;;;;;;;;;1.00;1.00;;;;;13.49;42.20;98426.41;4861927;28;102092;-79
2021/04/10 07:32:23;;;;;;;;;3.00;2.00;;;;;13.51;41.98;98429.72;4862455;28;101777;-78
2021/04/10 07:34:51;;;;;;;;;2.25;2.00;;;;;13.50;42.72;98434.31;4863921;28;102222;-78
2021/04/10 07:37:38;;;;;;;;;2.25;2.00;;;;;13.51;41.96;98437.88;4860088;28;103364;-79
2021/04/10 07:40:19;;;;;;;;;2.75;2.00;;;;;13.52;42.67;98431.38;4855794;28;101980;-78
2021/04/10 07:42:47;;;;;;;;;1.25;1.25;;;;;13.51;42.55;98425.09;4858996;28;102029;-79
2021/04/10 07:45:26;;;;;;;;;1.50;1.50;;;;;13.53;42.80;98428.44;4864490;28;102140;-79
2021/04/10 07:48:17;;;;;;;;;1.25;1.25;;;;;13.53;42.08;98433.03;4852212;28;103599;-78
2021/04/10 07:50:44;;;;;;;;;1.25;1.25;;;;;13.53;42.02;98427.59;4864394;28;102174;-78
2021/04/10 07:53:27;;;;;;;;;1.75;1.75;;;;;13.54;42.04;98423.84;4862370;28;101771;-78
2021/04/10 07:55:55;;;;;;;;;2.50;2.00;;;;;13.54;42.89;98430.09;4864151;28;101803;-78
2021/04/10 07:58:31;;;;;;;;;1.75;1.50;;;;;13.55;42.04;98430.94;4854296;28;103729;-78
2021/04/10 08:01:08;;;;;;;;;2.25;2.00;;;;;13.55;42.66;98428.22;4861185;28;101984;-78
2021/04/10 08:03:39;;;;;;;;;2.75;2.00;;;;;13.55;42.78;98417.34;4841338;28;103731;-78
2021/04/10 08:06:09;;;;;;;;;1.75;1.75;;;;;13.57;42.32;98424.22;4842429;28;102927;-78
2021/04/10 08:08:47;;;;;;;;;3.00;2.00;;;;;13.57;42.85;98421.50;4857130;28;105117;-79
2021/04/10 08:11:14;;;;;;;;;2.00;2.00;;;;;13.59;42.39;98421.28;4855147;28;103201;-79
2021/04/10 08:13:54;;;;;;;;;2.00;2.00;;;;;13.58;42.02;98414.19;4860649;28;101877;-79
2021/04/10 08:16:22;;;;;;;;;2.50;1.75;;;;;13.58;42.00;98415.00;4862136;28;101897;-79
2021/04/10 08:18:56;;;;;;;;;2.00;2.00;;;;;13.59;42.36;98410.41;4859321;28;103547;-79
2021/04/10 08:21:32;;;;;;;;;1.25;1.25;;;;;13.59;41.86;98411.25;4861216;28;101984;-79
2021/04/10 08:24:03;;;;;;;;;3.00;2.50;;;;;13.60;42.58;98412.09;4863353;28;102390;-79
2021/04/10 08:26:30;;;;;;;;;1.00;1.00;;;;;13.60;42.26;98422.94;4861479;28;102131;-79
2021/04/10 08:28:56;;;;;;;;;1.75;1.75;;;;;13.60;42.02;98398.50;4859057;28;103828;-79
2021/04/10 08:31:23;;;;;;;;;3.00;2.00;;;;;13.61;42.72;98411.00;4846680;28;102991;-79
2021/04/10 08:33:50;;;;;;;;;3.25;2.00;;;;;13.62;42.03;98407.25;4864015;28;102062;-79
2021/04/10 08:36:17;;;;;;;;;1.75;1.25;;;;;13.62;42.08;98415.38;4865008;28;102158;-79
2021/04/10 08:38:44;;;;;;;;;3.25;2.00;;;;;13.62;42.13;98407.25;4847409;28;103197;-79
2021/04/10 08:41:11;;;;;;;;;3.00;3.00;;;;;13.63;42.20;98412.47;4848956;28;102025;-79
2021/04/10 08:43:40;;;;;;;;;2.25;2.00;;;;;13.64;41.96;98410.56;4863730;28;101823;-79
2021/04/10 08:46:09;;;;;;;;;2.00;2.00;;;;;13.64;42.26;98405.97;4865104;28;102399;-79
2021/04/10 08:48:36;;;;;;;;;2.75;2.00;;;;;13.65;41.56;98412.22;4865387;28;103438;-79
2021/04/10 08:51:04;;;;;;;;;2.00;1.00;;;;;13.66;41.65;98413.88;4867903;28;102227;-79
2021/04/10 08:53:34;;;;;;;;;2.00;1.00;;;;;13.66;41.59;98417.44;4864502;28;102209;-79
2021/04/10 08:56:05;;;;;;;;;2.00;1.00;;;;;13.65;41.60;98413.03;4851853;28;102074;-79
2021/04/10 08:58:35;;;;;;;;;2.25;1.75;;;;;13.67;42.66;98412.84;4861201;28;103592;-79
2021/04/10 09:01:06;;;;;;;;;2.00;2.00;;;;;13.67;42.18;98408.22;4861944;28;101747;-79
2021/04/10 09:03:52;;;;;;;;;1.50;1.50;;;;;13.68;41.57;98414.50;4862573;28;102949;-79
2021/04/10 09:06:31;;;;;;;;;2.00;1.50;;;;;13.68;42.06;98415.34;4865097;28;101779;-79
2021/04/10 09:09:16;;;;;;;;;2.00;1.25;;;;;13.70;42.14;98423.25;4864836;28;103320;-79
2021/04/10 09:11:43;;;;;;;;;2.00;2.00;;;;;13.70;41.63;98415.09;4864716;28;102020;-79
2021/04/10 09:14:11;;;;;;;;;1.50;1.00;;;;;13.71;41.42;98420.31;4860453;28;102382;-79
2021/04/10 09:16:47;;;;;;;;;2.00;2.00;;;;;13.71;42.28;98419.47;4861642;28;102334;-79
2021/04/10 09:19:14;;;;;;;;;2.00;1.50;;;;;13.72;41.73;98421.97;4862790;28;103602;-79
2021/04/10 09:21:41;;;;;;;;;3.00;3.00;;;;;13.73;41.80;98425.53;4863949;28;102053;-79
2021/04/10 09:24:28;;;;;;;;;1.75;1.50;;;;;13.74;41.76;98429.88;4860493;28;102051;-79
2021/04/10 09:27:00;;;;;;;;;3.00;2.00;;;;;13.73;41.49;98422.81;4860944;28;103030;-79
2021/04/10 09:29:28;;;;;;;;;2.25;2.00;;;;;13.75;41.40;98431.56;4863981;28;103411;-80
2021/04/10 09:31:59;;;;;;;;;1.00;1.00;;;;;13.75;41.91;98418.78;4865121;28;101708;-80
2021/04/10 09:34:46;;;;;;;;;2.75;2.00;;;;;13.76;42.24;98419.63;4860867;28;102987;-79
2021/04/10 09:37:32;;;;;;;;;1.00;1.00;;;;;13.77;42.30;98410.44;4866314;28;102359;-79
2021/04/10 09:40:20;;;;;;;;;1.75;1.00;;;;;13.77;42.36;98415.88;4860580;28;103418;-80
2021/04/10 09:42:49;;;;;;;;;3.00;1.75;;;;;13.77;41.77;98410.44;4865989;28;101743;-79
2021/04/10 09:45:22;;;;;;;;;2.75;2.00;;;;;13.79;41.31;98402.88;4860961;28;102516;-79
2021/04/10 09:47:59;;;;;;;;;1.25;1.25;;;;;13.78;41.67;98399.31;4865216;28;102131;-79
2021/04/10 09:50:42;;;;;;;;;2.25;2.00;;;;;13.79;41.88;98411.84;4861073;28;103876;-79
2021/04/10 09:53:14;;;;;;;;;4.00;2.00;;;;;13.79;42.08;98398.25;4863651;28;102139;-79
2021/04/10 09:55:45;;;;;;;;;2.25;2.00;;;;;13.82;42.12;98402.44;4848240;28;103381;-79
2021/04/10 09:58:13;;;;;;;;;1.00;0.25;;;;;13.82;42.25;98394.28;4864908;28;101833;-79
2021/04/10 10:00:48;;;;;;;;;4.00;2.25;;;;;13.83;42.26;98385.03;4864314;28;103430;-80
2021/04/10 10:03:17;;;;;;;;;2.00;2.00;;;;;13.83;41.51;98398.63;4857458;28;102246;-79
2021/04/10 10:06:03;;;;;;;;;2.25;2.00;;;;;13.84;42.07;98403.84;4850458;28;102144;-79
2021/04/10 10:08:31;;;;;;;;;1.00;1.00;;;;;13.84;42.33;98406.56;4863726;28;103964;-79
2021/04/10 10:11:05;;;;;;;;;1.25;1.25;;;;;13.86;42.29;98406.34;4864482;28;103474;-79
2021/04/10 10:13:33;;;;;;;;;3.00;2.00;;;;;13.88;41.50;98409.66;4864515;28;103025;-80
2021/04/10 10:16:00;;;;;;;;;1.50;1.50;;;;;13.89;41.78;98394.19;4864410;28;102155;-79
2021/04/10 10:18:37;;;;;;;;;2.75;2.00;;;;;13.89;41.46;98400.47;4864938;28;104927;-80
2021/04/10 10:21:06;;;;;;;;;2.00;2.00;;;;;13.89;41.47;98405.91;4862101;28;103430;-79
2021/04/10 10:23:50;;;;;;;;;1.00;1.00;;;;;13.91;42.40;98398.34;4862517;28;102420;-80
2021/04/10 10:26:35;;;;;;;;;2.75;1.75;;;;;13.95;41.37;98409.59;4860391;28;103598;-81
2021/04/10 10:29:06;;;;;;;;;2.75;1.00;;;;;13.99;42.28;98406.19;4860183;28;102410;-81
2021/04/10 10:31:55;;;;;;;;;1.00;1.00;;;;;14.02;41.61;98405.72;4861732;28;104007;-80
2021/04/10 10:34:23;;;;;;;;;1.75;1.75;;;;;14.04;41.81;98403.63;4860661;28;101777;-79
2021/04/10 10:36:50;;;;;;;;;2.00;1.00;;;;;14.06;41.95;98400.66;4862477;28;101772;-79
2021/04/10 10:39:28;;;;;;;;;2.50;2.00;;;;;14.07;41.99;98391.47;4863186;28;104644;-79
2021/04/10 10:41:55;;;;;;;;;3.00;2.00;;;;;14.07;41.07;98403.16;4858885;28;103489;-80
2021/04/10 10:44:22;;;;;;;;;2.50;2.25;;;;;14.12;41.20;98402.47;4863020;28;101705;-80
2021/04/10 10:47:04;;;;;;;;;2.00;1.50;;;;;14.17;41.00;98392.59;4863070;28;102080;-80
2021/04/10 10:49:31;;;;;;;;;1.00;1.00;;;;;14.21;41.14;98396.50;4862109;28;102543;-80
2021/04/10 10:51:58;;;;;;;;;1.75;1.75;;;;;14.23;41.38;98399.81;4862603;28;103409;-79
2021/04/10 10:54:36;;;;;;;;;1.75;1.75;;;;;14.24;41.09;98404.19;4863517;28;102188;-79
2021/04/10 10:57:13;;;;;;;;;3.00;2.25;;;;;14.24;40.61;98398.75;4861008;28;103130;-79
2021/04/10 10:59:56;;;;;;;;;4.00;4.00;;;;;14.26;40.98;98402.09;4866236;28;102189;-79
2021/04/10 11:02:23;;;;;;;;;4.00;2.00;;;;;14.27;40.61;98413.81;4858581;28;103387;-79
2021/04/10 11:04:50;;;;;;;;;3.50;3.00;;;;;14.27;41.03;98413.81;4860634;28;101764;-79
2021/04/10 11:07:22;;;;;;;;;3.25;3.25;;;;;14.29;40.50;98411.66;4846892;28;102088;-79
2021/04/10 11:09:49;;;;;;;;;2.50;2.50;;;;;14.30;40.47;98403.28;4834890;28;102696;-79
2021/04/10 11:12:16;;;;;;;;;1.50;1.50;;;;;14.30;40.49;98414.16;4856990;28;103385;-79
2021/04/10 11:14:44;;;;;;;;;4.50;3.00;;;;;14.34;41.14;98419.13;4843405;28;102057;-79
2021/04/10 11:17:12;;;;;;;;;2.25;2.00;;;;;14.36;40.76;98417.06;4864283;28;102671;-79
2021/04/10 11:19:43;;;;;;;;;4.00;3.00;;;;;14.36;41.17;98406.19;4859705;28;102124;-79
2021/04/10 11:22:15;;;;;;;;;2.00;2.00;;;;;14.39;41.02;98394.84;4864689;28;103386;-79
2021/04/10 11:24:43;;;;;;;;;2.75;2.75;;;;;14.41;40.44;98398.16;4862506;28;102609;-79
2021/04/10 11:27:20;;;;;;;;;3.00;2.00;;;;;14.44;41.06;98401.25;4861457;28;102331;-79
2021/04/10 11:29:54;;;;;;;;;4.00;3.00;;;;;14.45;40.71;98396.63;4863662;28;102128;-79
2021/04/10 11:32:41;;;;;;;;;3.00;3.00;;;;;14.46;40.47;98388.22;4862569;28;103618;-81
2021/04/10 11:35:15;;;;;;;;;2.00;2.00;;;;;14.49;40.84;98395.94;4861013;28;102071;-81
2021/04/10 11:37:44;;;;;;;;;2.00;2.00;;;;;14.51;41.11;98385.66;4863458;28;103019;-81